Orient, Washington
Current Conditions -  °F | °C
As of 4:00 PM on Friday 21 Nov 2014 (Local Time) from CYCG Reporting Station
Light Snow Light Snow  
Wind Chill: 32°   Ceiling: 1500
Heat Index: 32°   Visibility: 2mi
Dew Point: 32°   Wind: 2mph
Humidity: 100%   Direction: 140°SE
Pressure: 29.69"   Gusts: NA
Location:  48.87°N, 118.21°W
Report Text: CYCG 220000Z 14002KT 2SM -SN FEW003 SCT009 OVC015 00/00 A2969 RMK SF2SF1SC5 SLP070
Loading
Personal Weather Stations






























Interactive Weather Map New forecast layout! Learn more

10-Day Weather Forecast

Advertisements
Track Severe Weather on mobile